sensor_id;sensor_type;location;lat;lon;timestamp;P1;durP1;ratioP1;P2;durP2;ratioP2
47896;SDS011;39629;51.400;5.494;2022-11-25T00:01:03;6.50;;;1.45;;
47896;SDS011;39629;51.400;5.494;2022-11-25T00:06:07;10.80;;;2.05;;
47896;SDS011;39629;51.400;5.494;2022-11-25T00:11:09;9.48;;;1.65;;
47896;SDS011;39629;51.400;5.494;2022-11-25T00:16:14;12.32;;;1.60;;
47896;SDS011;39629;51.400;5.494;2022-11-25T00:21:18;10.43;;;1.50;;
47896;SDS011;39629;51.400;5.494;2022-11-25T00:26:21;9.95;;;1.52;;
47896;SDS011;39629;51.400;5.494;2022-11-25T00:31:26;6.60;;;1.60;;
47896;SDS011;39629;51.400;5.494;2022-11-25T00:36:29;7.30;;;1.67;;
47896;SDS011;39629;51.400;5.494;2022-11-25T00:41:32;6.10;;;1.20;;
47896;SDS011;39629;51.400;5.494;2022-11-25T00:46:55;8.57;;;1.40;;
47896;SDS011;39629;51.400;5.494;2022-11-25T00:51:57;7.95;;;1.55;;
47896;SDS011;39629;51.400;5.494;2022-11-25T00:56:58;7.72;;;1.23;;
47896;SDS011;39629;51.400;5.494;2022-11-25T01:02:04;8.15;;;1.30;;
47896;SDS011;39629;51.400;5.494;2022-11-25T01:07:06;13.20;;;1.45;;
47896;SDS011;39629;51.400;5.494;2022-11-25T01:12:08;11.25;;;1.63;;
47896;SDS011;39629;51.400;5.494;2022-11-25T01:17:11;6.20;;;1.15;;
47896;SDS011;39629;51.400;5.494;2022-11-25T01:22:12;11.38;;;1.27;;
47896;SDS011;39629;51.400;5.494;2022-11-25T01:27:16;4.35;;;1.10;;
47896;SDS011;39629;51.400;5.494;2022-11-25T01:32:19;7.55;;;1.48;;
47896;SDS011;39629;51.400;5.494;2022-11-25T01:37:20;7.90;;;1.52;;
47896;SDS011;39629;51.400;5.494;2022-11-25T01:42:25;11.73;;;1.40;;
47896;SDS011;39629;51.400;5.494;2022-11-25T01:47:30;7.22;;;1.30;;
47896;SDS011;39629;51.400;5.494;2022-11-25T01:52:32;7.20;;;1.40;;
47896;SDS011;39629;51.400;5.494;2022-11-25T01:57:38;9.73;;;1.40;;
47896;SDS011;39629;51.400;5.494;2022-11-25T02:02:45;7.65;;;1.20;;
47896;SDS011;39629;51.400;5.494;2022-11-25T02:07:48;4.47;;;1.10;;
47896;SDS011;39629;51.400;5.494;2022-11-25T02:12:52;6.55;;;1.27;;
47896;SDS011;39629;51.400;5.494;2022-11-25T02:17:55;7.60;;;1.40;;
47896;SDS011;39629;51.400;5.494;2022-11-25T02:22:58;6.80;;;1.15;;
47896;SDS011;39629;51.400;5.494;2022-11-25T02:28:07;7.55;;;1.15;;
47896;SDS011;39629;51.400;5.494;2022-11-25T02:33:11;7.80;;;1.23;;
47896;SDS011;39629;51.400;5.494;2022-11-25T02:38:14;9.07;;;1.65;;
47896;SDS011;39629;51.400;5.494;2022-11-25T02:43:18;8.52;;;1.73;;
47896;SDS011;39629;51.400;5.494;2022-11-25T02:48:20;6.00;;;1.38;;
47896;SDS011;39629;51.400;5.494;2022-11-25T02:53:23;4.90;;;1.00;;
47896;SDS011;39629;51.400;5.494;2022-11-25T02:58:26;5.15;;;1.55;;
47896;SDS011;39629;51.400;5.494;2022-11-25T03:03:28;5.88;;;1.52;;
47896;SDS011;39629;51.400;5.494;2022-11-25T03:08:30;6.18;;;1.08;;
47896;SDS011;39629;51.400;5.494;2022-11-25T03:13:33;4.38;;;1.00;;
47896;SDS011;39629;51.400;5.494;2022-11-25T03:18:35;3.63;;;0.80;;
47896;SDS011;39629;51.400;5.494;2022-11-25T03:23:37;5.28;;;0.73;;
47896;SDS011;39629;51.400;5.494;2022-11-25T03:28:40;6.35;;;0.98;;
47896;SDS011;39629;51.400;5.494;2022-11-25T03:33:42;3.88;;;0.60;;
47896;SDS011;39629;51.400;5.494;2022-11-25T03:38:44;7.38;;;0.82;;
47896;SDS011;39629;51.400;5.494;2022-11-25T03:43:47;1.40;;;0.60;;
47896;SDS011;39629;51.400;5.494;2022-11-25T03:48:49;4.65;;;0.63;;
47896;SDS011;39629;51.400;5.494;2022-11-25T03:53:50;3.20;;;0.93;;
47896;SDS011;39629;51.400;5.494;2022-11-25T03:58:54;2.85;;;0.70;;
47896;SDS011;39629;51.400;5.494;2022-11-25T04:03:56;5.47;;;1.00;;
47896;SDS011;39629;51.400;5.494;2022-11-25T04:08:58;3.17;;;0.68;;
47896;SDS011;39629;51.400;5.494;2022-11-25T04:14:01;6.43;;;0.77;;
47896;SDS011;39629;51.400;5.494;2022-11-25T04:19:03;4.82;;;1.05;;
47896;SDS011;39629;51.400;5.494;2022-11-25T04:24:05;5.82;;;0.95;;
47896;SDS011;39629;51.400;5.494;2022-11-25T04:29:09;5.53;;;0.80;;
47896;SDS011;39629;51.400;5.494;2022-11-25T04:34:11;6.72;;;1.02;;
47896;SDS011;39629;51.400;5.494;2022-11-25T04:39:13;4.93;;;0.80;;
47896;SDS011;39629;51.400;5.494;2022-11-25T04:44:17;3.08;;;0.70;;
47896;SDS011;39629;51.400;5.494;2022-11-25T04:49:19;3.58;;;0.68;;
47896;SDS011;39629;51.400;5.494;2022-11-25T04:54:21;1.95;;;0.52;;
47896;SDS011;39629;51.400;5.494;2022-11-25T04:59:25;2.55;;;0.70;;
47896;SDS011;39629;51.400;5.494;2022-11-25T05:04:45;4.80;;;0.50;;
47896;SDS011;39629;51.400;5.494;2022-11-25T05:09:48;2.85;;;0.60;;
47896;SDS011;39629;51.400;5.494;2022-11-25T05:14:58;2.90;;;0.57;;
47896;SDS011;39629;51.400;5.494;2022-11-25T05:20:00;0.93;;;0.50;;
47896;SDS011;39629;51.400;5.494;2022-11-25T05:25:05;3.63;;;0.70;;
47896;SDS011;39629;51.400;5.494;2022-11-25T05:30:15;1.83;;;0.55;;
47896;SDS011;39629;51.400;5.494;2022-11-25T05:35:17;1.95;;;0.50;;
47896;SDS011;39629;51.400;5.494;2022-11-25T05:40:21;4.03;;;0.60;;
47896;SDS011;39629;51.400;5.494;2022-11-25T05:45:38;2.55;;;0.60;;
47896;SDS011;39629;51.400;5.494;2022-11-25T05:50:42;3.45;;;0.60;;
47896;SDS011;39629;51.400;5.494;2022-11-25T05:55:53;5.07;;;0.70;;
47896;SDS011;39629;51.400;5.494;2022-11-25T06:01:17;1.80;;;0.60;;
47896;SDS011;39629;51.400;5.494;2022-11-25T06:06:20;1.70;;;0.60;;
47896;SDS011;39629;51.400;5.494;2022-11-25T06:11:22;4.88;;;0.85;;
47896;SDS011;39629;51.400;5.494;2022-11-25T06:16:26;2.88;;;0.60;;
47896;SDS011;39629;51.400;5.494;2022-11-25T06:21:40;4.50;;;0.82;;
47896;SDS011;39629;51.400;5.494;2022-11-25T06:26:41;2.95;;;1.00;;
47896;SDS011;39629;51.400;5.494;2022-11-25T06:31:47;3.63;;;0.85;;
47896;SDS011;39629;51.400;5.494;2022-11-25T06:37:03;5.40;;;0.88;;
47896;SDS011;39629;51.400;5.494;2022-11-25T06:42:05;4.38;;;0.90;;
47896;SDS011;39629;51.400;5.494;2022-11-25T06:47:08;6.32;;;0.80;;
47896;SDS011;39629;51.400;5.494;2022-11-25T06:52:10;3.80;;;0.98;;
47896;SDS011;39629;51.400;5.494;2022-11-25T06:57:14;6.85;;;1.27;;
47896;SDS011;39629;51.400;5.494;2022-11-25T07:02:18;5.40;;;1.35;;
47896;SDS011;39629;51.400;5.494;2022-11-25T07:07:20;6.78;;;1.30;;
47896;SDS011;39629;51.400;5.494;2022-11-25T07:12:21;4.53;;;1.17;;
47896;SDS011;39629;51.400;5.494;2022-11-25T07:17:24;6.63;;;1.15;;
47896;SDS011;39629;51.400;5.494;2022-11-25T07:22:26;5.72;;;1.30;;
47896;SDS011;39629;51.400;5.494;2022-11-25T07:27:28;5.05;;;1.50;;
47896;SDS011;39629;51.400;5.494;2022-11-25T07:32:32;5.80;;;1.70;;
47896;SDS011;39629;51.400;5.494;2022-11-25T07:37:34;6.63;;;1.42;;
47896;SDS011;39629;51.400;5.494;2022-11-25T07:42:36;4.78;;;1.50;;
47896;SDS011;39629;51.400;5.494;2022-11-25T07:47:43;4.03;;;1.45;;
47896;SDS011;39629;51.400;5.494;2022-11-25T07:52:45;5.78;;;1.83;;
47896;SDS011;39629;51.400;5.494;2022-11-25T07:57:46;4.47;;;1.30;;
47896;SDS011;39629;51.400;5.494;2022-11-25T08:02:49;5.70;;;1.45;;
47896;SDS011;39629;51.400;5.494;2022-11-25T08:07:52;5.73;;;1.87;;
47896;SDS011;39629;51.400;5.494;2022-11-25T08:12:53;7.00;;;1.80;;
47896;SDS011;39629;51.400;5.494;2022-11-25T08:17:56;7.07;;;2.00;;
47896;SDS011;39629;51.400;5.494;2022-11-25T08:22:58;7.35;;;1.70;;
47896;SDS011;39629;51.400;5.494;2022-11-25T08:28:00;3.75;;;1.70;;
47896;SDS011;39629;51.400;5.494;2022-11-25T08:33:03;7.25;;;1.67;;
47896;SDS011;39629;51.400;5.494;2022-11-25T08:38:07;5.47;;;1.80;;
47896;SDS011;39629;51.400;5.494;2022-11-25T08:43:09;4.97;;;1.20;;
47896;SDS011;39629;51.400;5.494;2022-11-25T08:48:12;5.28;;;1.70;;
47896;SDS011;39629;51.400;5.494;2022-11-25T08:53:14;7.25;;;1.75;;
47896;SDS011;39629;51.400;5.494;2022-11-25T08:58:17;7.50;;;2.22;;
47896;SDS011;39629;51.400;5.494;2022-11-25T09:03:19;8.27;;;2.15;;
47896;SDS011;39629;51.400;5.494;2022-11-25T09:08:21;6.00;;;1.58;;
47896;SDS011;39629;51.400;5.494;2022-11-25T09:13:23;6.68;;;1.95;;
47896;SDS011;39629;51.400;5.494;2022-11-25T09:18:26;8.93;;;2.03;;
47896;SDS011;39629;51.400;5.494;2022-11-25T09:23:29;6.75;;;1.42;;
47896;SDS011;39629;51.400;5.494;2022-11-25T09:28:31;6.97;;;1.90;;
47896;SDS011;39629;51.400;5.494;2022-11-25T09:33:34;7.05;;;1.50;;
47896;SDS011;39629;51.400;5.494;2022-11-25T09:38:36;6.40;;;1.58;;
47896;SDS011;39629;51.400;5.494;2022-11-25T09:43:40;8.90;;;1.90;;
47896;SDS011;39629;51.400;5.494;2022-11-25T09:49:17;7.43;;;1.60;;
47896;SDS011;39629;51.400;5.494;2022-11-25T09:54:31;9.80;;;1.85;;
47896;SDS011;39629;51.400;5.494;2022-11-25T09:59:38;9.70;;;1.75;;
47896;SDS011;39629;51.400;5.494;2022-11-25T10:04:47;11.50;;;1.77;;
47896;SDS011;39629;51.400;5.494;2022-11-25T10:09:52;6.72;;;1.80;;
47896;SDS011;39629;51.400;5.494;2022-11-25T10:14:57;8.05;;;1.98;;
47896;SDS011;39629;51.400;5.494;2022-11-25T10:20:04;11.73;;;2.10;;
47896;SDS011;39629;51.400;5.494;2022-11-25T10:25:13;6.85;;;1.20;;
47896;SDS011;39629;51.400;5.494;2022-11-25T10:30:19;5.50;;;1.50;;
47896;SDS011;39629;51.400;5.494;2022-11-25T10:35:27;5.37;;;1.43;;
47896;SDS011;39629;51.400;5.494;2022-11-25T10:40:33;6.13;;;1.67;;
47896;SDS011;39629;51.400;5.494;2022-11-25T10:45:36;11.52;;;1.60;;
47896;SDS011;39629;51.400;5.494;2022-11-25T10:50:51;6.35;;;1.20;;
47896;SDS011;39629;51.400;5.494;2022-11-25T10:56:04;6.63;;;1.38;;
47896;SDS011;39629;51.400;5.494;2022-11-25T11:01:15;8.52;;;1.30;;
47896;SDS011;39629;51.400;5.494;2022-11-25T11:11:45;8.95;;;1.30;;
47896;SDS011;39629;51.400;5.494;2022-11-25T11:16:50;8.77;;;1.70;;
47896;SDS011;39629;51.400;5.494;2022-11-25T11:21:55;2.88;;;0.75;;
47896;SDS011;39629;51.400;5.494;2022-11-25T11:27:01;7.13;;;1.55;;
47896;SDS011;39629;51.400;5.494;2022-11-25T11:32:04;10.23;;;1.30;;
47896;SDS011;39629;51.400;5.494;2022-11-25T11:37:16;8.27;;;1.53;;
47896;SDS011;39629;51.400;5.494;2022-11-25T11:42:30;5.68;;;1.20;;
47896;SDS011;39629;51.400;5.494;2022-11-25T11:47:48;8.07;;;1.20;;
47896;SDS011;39629;51.400;5.494;2022-11-25T11:53:03;5.72;;;1.45;;
47896;SDS011;39629;51.400;5.494;2022-11-25T11:58:12;6.88;;;1.52;;
47896;SDS011;39629;51.400;5.494;2022-11-25T12:03:22;6.05;;;1.15;;
47896;SDS011;39629;51.400;5.494;2022-11-25T12:08:28;6.85;;;1.17;;
47896;SDS011;39629;51.400;5.494;2022-11-25T12:13:36;4.53;;;1.23;;
47896;SDS011;39629;51.400;5.494;2022-11-25T12:18:46;17.63;;;2.13;;
47896;SDS011;39629;51.400;5.494;2022-11-25T12:23:52;7.85;;;1.65;;
47896;SDS011;39629;51.400;5.494;2022-11-25T12:29:04;4.85;;;1.10;;
47896;SDS011;39629;51.400;5.494;2022-11-25T12:34:10;4.38;;;1.00;;
47896;SDS011;39629;51.400;5.494;2022-11-25T12:39:19;7.20;;;1.40;;
47896;SDS011;39629;51.400;5.494;2022-11-25T12:44:29;7.90;;;1.42;;
47896;SDS011;39629;51.400;5.494;2022-11-25T12:49:37;7.57;;;1.13;;
47896;SDS011;39629;51.400;5.494;2022-11-25T12:54:52;9.05;;;1.30;;
47896;SDS011;39629;51.400;5.494;2022-11-25T13:00:12;5.35;;;1.35;;
47896;SDS011;39629;51.400;5.494;2022-11-25T13:11:10;8.27;;;1.30;;
47896;SDS011;39629;51.400;5.494;2022-11-25T13:21:27;7.40;;;1.40;;
47896;SDS011;39629;51.400;5.494;2022-11-25T13:26:46;6.00;;;1.70;;
47896;SDS011;39629;51.400;5.494;2022-11-25T13:31:56;5.68;;;1.15;;
47896;SDS011;39629;51.400;5.494;2022-11-25T13:37:00;6.68;;;1.45;;
47896;SDS011;39629;51.400;5.494;2022-11-25T13:42:09;9.38;;;1.65;;
47896;SDS011;39629;51.400;5.494;2022-11-25T13:47:22;5.57;;;1.40;;
47896;SDS011;39629;51.400;5.494;2022-11-25T13:52:32;10.40;;;1.92;;
47896;SDS011;39629;51.400;5.494;2022-11-25T13:57:38;8.13;;;2.08;;
47896;SDS011;39629;51.400;5.494;2022-11-25T14:02:44;6.75;;;1.90;;
47896;SDS011;39629;51.400;5.494;2022-11-25T14:07:49;7.65;;;2.10;;
47896;SDS011;39629;51.400;5.494;2022-11-25T14:13:01;8.93;;;1.90;;
47896;SDS011;39629;51.400;5.494;2022-11-25T14:24:01;7.63;;;1.77;;
47896;SDS011;39629;51.400;5.494;2022-11-25T14:29:18;7.85;;;1.70;;
47896;SDS011;39629;51.400;5.494;2022-11-25T14:34:26;9.27;;;1.90;;
47896;SDS011;39629;51.400;5.494;2022-11-25T14:39:32;14.40;;;2.13;;
47896;SDS011;39629;51.400;5.494;2022-11-25T14:44:39;8.07;;;1.80;;
47896;SDS011;39629;51.400;5.494;2022-11-25T14:49:47;9.98;;;1.98;;
47896;SDS011;39629;51.400;5.494;2022-11-25T14:54:52;8.40;;;1.70;;
47896;SDS011;39629;51.400;5.494;2022-11-25T14:59:58;5.82;;;1.67;;
47896;SDS011;39629;51.400;5.494;2022-11-25T15:05:12;6.70;;;2.00;;
47896;SDS011;39629;51.400;5.494;2022-11-25T15:10:30;9.93;;;2.53;;
47896;SDS011;39629;51.400;5.494;2022-11-25T15:15:39;9.98;;;2.10;;
47896;SDS011;39629;51.400;5.494;2022-11-25T15:20:46;7.60;;;1.95;;
47896;SDS011;39629;51.400;5.494;2022-11-25T15:25:49;6.20;;;2.25;;
47896;SDS011;39629;51.400;5.494;2022-11-25T15:30:57;8.45;;;1.80;;
47896;SDS011;39629;51.400;5.494;2022-11-25T15:36:03;8.95;;;2.60;;
47896;SDS011;39629;51.400;5.494;2022-11-25T15:41:05;8.25;;;2.30;;
47896;SDS011;39629;51.400;5.494;2022-11-25T15:46:16;9.57;;;2.78;;
47896;SDS011;39629;51.400;5.494;2022-11-25T15:51:29;6.88;;;2.88;;
47896;SDS011;39629;51.400;5.494;2022-11-25T15:56:34;6.70;;;2.38;;
47896;SDS011;39629;51.400;5.494;2022-11-25T16:01:40;10.45;;;2.25;;
47896;SDS011;39629;51.400;5.494;2022-11-25T16:06:50;9.75;;;2.88;;
47896;SDS011;39629;51.400;5.494;2022-11-25T16:12:02;9.18;;;2.72;;
47896;SDS011;39629;51.400;5.494;2022-11-25T16:17:09;9.75;;;3.03;;
47896;SDS011;39629;51.400;5.494;2022-11-25T16:22:12;13.80;;;2.97;;
47896;SDS011;39629;51.400;5.494;2022-11-25T16:27:18;8.88;;;2.67;;
47896;SDS011;39629;51.400;5.494;2022-11-25T16:32:23;11.07;;;2.55;;
47896;SDS011;39629;51.400;5.494;2022-11-25T16:42:27;9.40;;;2.70;;
47896;SDS011;39629;51.400;5.494;2022-11-25T16:47:30;10.35;;;2.67;;
47896;SDS011;39629;51.400;5.494;2022-11-25T16:52:32;11.55;;;2.95;;
47896;SDS011;39629;51.400;5.494;2022-11-25T16:57:34;12.20;;;3.33;;
47896;SDS011;39629;51.400;5.494;2022-11-25T17:02:38;9.48;;;2.60;;
47896;SDS011;39629;51.400;5.494;2022-11-25T17:07:39;10.98;;;3.35;;
47896;SDS011;39629;51.400;5.494;2022-11-25T17:12:41;9.20;;;3.05;;
47896;SDS011;39629;51.400;5.494;2022-11-25T17:17:46;12.87;;;3.97;;
47896;SDS011;39629;51.400;5.494;2022-11-25T17:22:48;10.47;;;3.20;;
47896;SDS011;39629;51.400;5.494;2022-11-25T17:27:50;7.22;;;3.50;;
47896;SDS011;39629;51.400;5.494;2022-11-25T17:32:55;9.32;;;2.83;;
47896;SDS011;39629;51.400;5.494;2022-11-25T17:38:00;10.27;;;3.20;;
47896;SDS011;39629;51.400;5.494;2022-11-25T17:43:01;15.82;;;3.65;;
47896;SDS011;39629;51.400;5.494;2022-11-25T17:48:06;12.50;;;3.55;;
47896;SDS011;39629;51.400;5.494;2022-11-25T17:53:10;9.52;;;3.03;;
47896;SDS011;39629;51.400;5.494;2022-11-25T17:58:11;9.68;;;3.38;;
47896;SDS011;39629;51.400;5.494;2022-11-25T18:03:16;10.35;;;3.33;;
47896;SDS011;39629;51.400;5.494;2022-11-25T18:08:17;5.80;;;2.78;;
47896;SDS011;39629;51.400;5.494;2022-11-25T18:13:19;9.35;;;3.05;;
47896;SDS011;39629;51.400;5.494;2022-11-25T18:18:23;10.15;;;3.72;;
47896;SDS011;39629;51.400;5.494;2022-11-25T18:23:25;11.85;;;3.70;;
47896;SDS011;39629;51.400;5.494;2022-11-25T18:28:27;11.30;;;4.30;;
47896;SDS011;39629;51.400;5.494;2022-11-25T18:33:33;11.07;;;3.47;;
47896;SDS011;39629;51.400;5.494;2022-11-25T18:38:34;12.25;;;5.25;;
47896;SDS011;39629;51.400;5.494;2022-11-25T18:43:36;12.05;;;4.40;;
47896;SDS011;39629;51.400;5.494;2022-11-25T18:48:39;12.73;;;4.30;;
47896;SDS011;39629;51.400;5.494;2022-11-25T18:53:41;12.95;;;4.80;;
47896;SDS011;39629;51.400;5.494;2022-11-25T18:58:43;12.75;;;4.32;;
47896;SDS011;39629;51.400;5.494;2022-11-25T19:03:52;14.80;;;4.75;;
47896;SDS011;39629;51.400;5.494;2022-11-25T19:08:54;15.83;;;5.17;;
47896;SDS011;39629;51.400;5.494;2022-11-25T19:13:57;9.57;;;4.70;;
47896;SDS011;39629;51.400;5.494;2022-11-25T19:19:04;9.35;;;3.92;;
47896;SDS011;39629;51.400;5.494;2022-11-25T19:24:09;11.13;;;4.88;;
47896;SDS011;39629;51.400;5.494;2022-11-25T19:29:14;13.02;;;4.72;;
47896;SDS011;39629;51.400;5.494;2022-11-25T19:34:22;8.90;;;4.50;;
47896;SDS011;39629;51.400;5.494;2022-11-25T19:39:27;15.38;;;4.40;;
47896;SDS011;39629;51.400;5.494;2022-11-25T19:44:29;10.93;;;4.28;;
47896;SDS011;39629;51.400;5.494;2022-11-25T19:49:32;10.70;;;4.47;;
47896;SDS011;39629;51.400;5.494;2022-11-25T19:54:33;9.57;;;4.50;;
47896;SDS011;39629;51.400;5.494;2022-11-25T19:59:35;18.20;;;5.40;;
47896;SDS011;39629;51.400;5.494;2022-11-25T20:04:38;12.90;;;4.57;;
47896;SDS011;39629;51.400;5.494;2022-11-25T20:09:42;8.85;;;4.30;;
47896;SDS011;39629;51.400;5.494;2022-11-25T20:14:44;14.23;;;4.95;;
47896;SDS011;39629;51.400;5.494;2022-11-25T20:19:46;9.57;;;4.05;;
47896;SDS011;39629;51.400;5.494;2022-11-25T20:24:49;8.70;;;4.32;;
47896;SDS011;39629;51.400;5.494;2022-11-25T20:29:51;9.73;;;4.75;;
47896;SDS011;39629;51.400;5.494;2022-11-25T20:34:54;10.57;;;4.70;;
47896;SDS011;39629;51.400;5.494;2022-11-25T20:39:56;14.48;;;6.28;;
47896;SDS011;39629;51.400;5.494;2022-11-25T20:44:59;14.27;;;5.47;;
47896;SDS011;39629;51.400;5.494;2022-11-25T20:50:03;15.98;;;5.30;;
47896;SDS011;39629;51.400;5.494;2022-11-25T20:55:12;10.02;;;4.57;;
47896;SDS011;39629;51.400;5.494;2022-11-25T21:00:16;11.88;;;5.10;;
47896;SDS011;39629;51.400;5.494;2022-11-25T21:05:21;10.68;;;4.57;;
47896;SDS011;39629;51.400;5.494;2022-11-25T21:10:23;13.23;;;5.63;;
47896;SDS011;39629;51.400;5.494;2022-11-25T21:15:27;11.48;;;4.43;;
47896;SDS011;39629;51.400;5.494;2022-11-25T21:20:30;15.18;;;5.47;;
47896;SDS011;39629;51.400;5.494;2022-11-25T21:25:32;11.68;;;4.55;;
47896;SDS011;39629;51.400;5.494;2022-11-25T21:30:34;9.20;;;4.25;;
47896;SDS011;39629;51.400;5.494;2022-11-25T21:35:37;12.63;;;4.53;;
47896;SDS011;39629;51.400;5.494;2022-11-25T21:40:41;9.70;;;4.57;;
47896;SDS011;39629;51.400;5.494;2022-11-25T21:45:45;16.13;;;5.57;;
47896;SDS011;39629;51.400;5.494;2022-11-25T21:50:48;15.70;;;4.85;;
47896;SDS011;39629;51.400;5.494;2022-11-25T21:55:50;10.02;;;3.92;;
47896;SDS011;39629;51.400;5.494;2022-11-25T22:00:52;11.48;;;5.07;;
47896;SDS011;39629;51.400;5.494;2022-11-25T22:05:57;8.97;;;4.63;;
47896;SDS011;39629;51.400;5.494;2022-11-25T22:10:58;11.40;;;4.88;;
47896;SDS011;39629;51.400;5.494;2022-11-25T22:16:00;12.43;;;4.50;;
47896;SDS011;39629;51.400;5.494;2022-11-25T22:21:03;8.20;;;4.30;;
47896;SDS011;39629;51.400;5.494;2022-11-25T22:26:05;9.00;;;4.25;;
47896;SDS011;39629;51.400;5.494;2022-11-25T22:31:11;9.65;;;4.47;;
47896;SDS011;39629;51.400;5.494;2022-11-25T22:36:23;10.27;;;4.27;;
47896;SDS011;39629;51.400;5.494;2022-11-25T22:41:31;10.82;;;5.50;;
47896;SDS011;39629;51.400;5.494;2022-11-25T22:46:33;14.30;;;4.68;;
47896;SDS011;39629;51.400;5.494;2022-11-25T22:51:38;8.30;;;4.30;;
47896;SDS011;39629;51.400;5.494;2022-11-25T22:56:39;14.10;;;4.88;;
47896;SDS011;39629;51.400;5.494;2022-11-25T23:01:41;16.17;;;4.72;;
47896;SDS011;39629;51.400;5.494;2022-11-25T23:06:44;15.05;;;5.07;;
47896;SDS011;39629;51.400;5.494;2022-11-25T23:11:46;15.00;;;5.90;;
47896;SDS011;39629;51.400;5.494;2022-11-25T23:16:48;13.50;;;4.88;;
47896;SDS011;39629;51.400;5.494;2022-11-25T23:21:51;16.83;;;5.75;;
47896;SDS011;39629;51.400;5.494;2022-11-25T23:26:53;10.45;;;4.85;;
47896;SDS011;39629;51.400;5.494;2022-11-25T23:31:54;15.27;;;4.95;;
47896;SDS011;39629;51.400;5.494;2022-11-25T23:36:57;12.70;;;5.47;;
47896;SDS011;39629;51.400;5.494;2022-11-25T23:41:59;14.70;;;4.93;;
47896;SDS011;39629;51.400;5.494;2022-11-25T23:47:02;12.65;;;5.18;;
47896;SDS011;39629;51.400;5.494;2022-11-25T23:52:06;10.40;;;5.00;;
47896;SDS011;39629;51.400;5.494;2022-11-25T23:57:13;13.18;;;4.97;;
